Terminal Aerodrome Forecast
Issued by NWS Milwaukee/Sullivan, WI

Home | Current Version | Previous Version | Text Only | Print | Product List | Glossary On
Versions: 1 2 3 4 5 6 7 8 9 10 11 12 13 14 15 16 17 18 19 20 21 22 23 24 25 26 27 28 29 30 31 32
000
FTUS43 KMKX 162326
TAFMSN
TAF
KMSN 162326Z 1700/1724 16016G24KT P6SM BKN100
     FM170600 15014G20KT P6SM VCSH BKN050
     FM171000 19010KT P6SM BKN040
     FM171500 25009KT P6SM BKN040
     FM171800 28009KT P6SM SCT040
     FM172200 32006KT P6SM SCT040=

USA.gov is the U.S. government's official web portal to all federal, state and local government web resources and services.